createdAt,value
2022-12-31T00:01:43.693Z,10.47
2022-12-31T00:04:46.497Z,10.24
2022-12-31T00:07:49.272Z,10.27
2022-12-31T00:10:52.105Z,10.20
2022-12-31T00:13:55.652Z,10.14
2022-12-31T00:16:58.523Z,10.01
2022-12-31T00:20:01.410Z,9.96
2022-12-31T00:23:04.231Z,10.07
2022-12-31T00:26:16.958Z,10.34
2022-12-31T00:29:19.786Z,10.26
2022-12-31T00:32:22.637Z,10.25
2022-12-31T00:35:25.497Z,10.46
2022-12-31T00:38:28.286Z,10.34
2022-12-31T00:41:31.488Z,10.15
2022-12-31T00:44:34.249Z,10.01
2022-12-31T00:47:37.061Z,10.10
2022-12-31T00:50:39.830Z,11.19
2022-12-31T00:53:43.434Z,12.35
2022-12-31T00:56:46.359Z,12.34
2022-12-31T00:59:49.153Z,11.28
2022-12-31T01:02:52.070Z,11.56
2022-12-31T01:05:59.894Z,11.64
2022-12-31T01:09:02.744Z,11.44
2022-12-31T01:12:05.752Z,11.40
2022-12-31T01:15:08.743Z,10.96
2022-12-31T01:18:11.696Z,11.15
2022-12-31T01:21:15.763Z,10.93
2022-12-31T01:24:18.583Z,10.72
2022-12-31T01:27:21.398Z,10.59
2022-12-31T01:30:24.183Z,10.38
2022-12-31T01:33:26.993Z,10.11
2022-12-31T01:36:31.974Z,9.98
2022-12-31T01:39:34.750Z,9.91
2022-12-31T01:42:37.625Z,9.87
2022-12-31T01:45:42.224Z,10.18
2022-12-31T01:48:50.205Z,10.42
2022-12-31T01:52:24.328Z,10.74
2022-12-31T01:55:30.533Z,11.26
2022-12-31T01:58:44.303Z,11.39
2022-12-31T02:01:48.909Z,11.61
2022-12-31T02:04:56.123Z,11.82
2022-12-31T02:07:59.035Z,11.88
2022-12-31T02:11:02.059Z,11.85
2022-12-31T02:14:10.017Z,11.81
2022-12-31T02:17:25.025Z,11.92
2022-12-31T02:21:03.573Z,11.80
2022-12-31T02:24:06.376Z,11.89
2022-12-31T02:27:23.929Z,11.71
2022-12-31T02:30:31.357Z,11.39
2022-12-31T02:33:41.320Z,11.25
2022-12-31T02:36:47.567Z,11.61
2022-12-31T02:39:51.466Z,11.27
2022-12-31T02:42:55.701Z,10.76
2022-12-31T02:46:20.396Z,10.71
2022-12-31T02:49:53.800Z,10.52
2022-12-31T02:52:59.648Z,10.48
2022-12-31T02:56:14.491Z,10.24
2022-12-31T02:59:47.137Z,10.18
2022-12-31T03:02:52.239Z,9.98
2022-12-31T03:05:57.413Z,9.73
2022-12-31T03:09:14.835Z,9.55
2022-12-31T03:12:38.842Z,9.51
2022-12-31T03:15:41.643Z,9.37
2022-12-31T03:19:13.972Z,9.24
2022-12-31T03:22:29.153Z,9.14
2022-12-31T03:25:49.766Z,9.28
2022-12-31T03:28:52.535Z,9.61
2022-12-31T03:31:55.351Z,10.42
2022-12-31T03:34:58.113Z,11.11
2022-12-31T03:38:02.177Z,11.12
2022-12-31T03:41:05.702Z,11.35
2022-12-31T03:44:08.515Z,11.46
2022-12-31T03:47:11.387Z,11.26
2022-12-31T03:50:16.722Z,11.28
2022-12-31T03:53:20.298Z,11.08
2022-12-31T03:56:23.072Z,10.88
2022-12-31T03:59:26.020Z,10.63
2022-12-31T04:02:29.617Z,10.47
2022-12-31T04:05:33.858Z,10.49
2022-12-31T04:08:36.623Z,10.46
2022-12-31T04:11:39.495Z,10.64
2022-12-31T04:14:42.724Z,11.43
2022-12-31T04:17:45.761Z,11.57
2022-12-31T04:20:48.700Z,11.73
2022-12-31T04:23:51.546Z,11.63
2022-12-31T04:26:54.356Z,11.56
2022-12-31T04:29:57.113Z,11.34
2022-12-31T04:32:59.990Z,11.23
2022-12-31T04:36:07.886Z,11.05
2022-12-31T04:39:10.666Z,11.00
2022-12-31T04:42:13.507Z,10.82
2022-12-31T04:45:16.449Z,10.63
2022-12-31T04:48:19.283Z,10.49
2022-12-31T04:51:22.861Z,10.34
2022-12-31T04:54:25.679Z,10.19
2022-12-31T04:57:28.460Z,10.10
2022-12-31T05:00:31.231Z,10.11
2022-12-31T05:03:35.355Z,10.00
2022-12-31T05:06:38.135Z,9.85
2022-12-31T05:09:40.940Z,9.74
2022-12-31T05:12:43.742Z,9.66
2022-12-31T05:15:46.983Z,9.62
2022-12-31T05:18:49.794Z,9.61
2022-12-31T05:22:11.340Z,9.60
2022-12-31T05:25:14.309Z,9.58
2022-12-31T05:28:17.559Z,9.59
2022-12-31T05:31:20.418Z,9.60
2022-12-31T05:34:23.230Z,9.61
2022-12-31T05:37:27.851Z,9.51
2022-12-31T05:40:30.800Z,9.46
2022-12-31T05:43:34.325Z,9.41
2022-12-31T05:46:37.103Z,9.47
2022-12-31T05:49:40.006Z,9.49
2022-12-31T05:52:47.423Z,9.42
2022-12-31T05:55:50.855Z,9.45
2022-12-31T05:58:53.830Z,10.38
2022-12-31T06:01:57.152Z,11.86
2022-12-31T06:04:59.967Z,12.62
2022-12-31T06:08:02.970Z,13.56
2022-12-31T06:11:05.816Z,13.84
2022-12-31T06:14:08.759Z,12.75
2022-12-31T06:17:11.701Z,12.18
2022-12-31T06:20:14.525Z,12.87
2022-12-31T06:23:17.376Z,12.89
2022-12-31T06:26:20.275Z,12.73
2022-12-31T06:29:23.102Z,12.69
2022-12-31T06:32:25.866Z,12.64
2022-12-31T06:35:28.847Z,12.43
2022-12-31T06:38:34.128Z,12.25
2022-12-31T06:41:37.428Z,12.05
2022-12-31T06:44:40.404Z,11.79
2022-12-31T06:47:43.316Z,11.58
2022-12-31T06:50:46.139Z,11.53
2022-12-31T06:53:50.876Z,11.43
2022-12-31T06:56:54.100Z,11.24
2022-12-31T06:59:57.466Z,11.37
2022-12-31T07:03:09.651Z,11.90
2022-12-31T07:06:23.518Z,11.82
2022-12-31T07:09:42.941Z,11.62
2022-12-31T07:13:17.624Z,11.58
2022-12-31T07:16:35.685Z,11.75
2022-12-31T07:19:57.896Z,11.59
2022-12-31T07:23:01.289Z,11.31
2022-12-31T07:26:11.074Z,11.07
2022-12-31T07:29:23.675Z,11.05
2022-12-31T07:32:36.106Z,11.18
2022-12-31T07:35:47.996Z,11.48
2022-12-31T07:38:57.273Z,11.73
2022-12-31T07:42:43.769Z,11.93
2022-12-31T07:45:49.972Z,11.84
2022-12-31T07:48:52.840Z,11.68
2022-12-31T07:51:56.127Z,11.57
2022-12-31T07:54:58.884Z,11.60
2022-12-31T07:58:19.284Z,11.77
2022-12-31T08:01:47.896Z,11.84
2022-12-31T08:05:11.051Z,12.08
2022-12-31T08:08:39.820Z,12.04
2022-12-31T08:11:55.597Z,12.16
2022-12-31T08:14:58.697Z,12.26
2022-12-31T08:18:01.799Z,12.34
2022-12-31T08:21:17.557Z,12.58
2022-12-31T08:24:40.515Z,12.72
2022-12-31T08:28:02.277Z,12.79
2022-12-31T08:31:31.516Z,12.90
2022-12-31T08:34:52.863Z,12.72
2022-12-31T08:38:13.717Z,12.69
2022-12-31T08:41:27.098Z,12.77
2022-12-31T08:44:39.716Z,12.60
2022-12-31T08:48:04.701Z,12.80
2022-12-31T08:51:14.766Z,12.84
2022-12-31T08:54:17.793Z,12.58
2022-12-31T08:57:26.326Z,12.47
2022-12-31T09:00:30.675Z,12.42
2022-12-31T09:03:55.679Z,12.42
2022-12-31T09:07:03.052Z,12.44
2022-12-31T09:10:24.930Z,12.45
2022-12-31T09:13:49.491Z,12.46
2022-12-31T09:17:08.591Z,12.48
2022-12-31T09:20:17.180Z,12.54
2022-12-31T09:23:20.643Z,12.58
2022-12-31T09:27:06.194Z,12.66
2022-12-31T09:30:13.245Z,12.67
2022-12-31T09:33:57.700Z,12.67
2022-12-31T09:37:07.318Z,12.70
2022-12-31T09:40:28.421Z,12.95
2022-12-31T09:44:05.411Z,12.84
2022-12-31T09:47:34.574Z,12.64
2022-12-31T09:51:10.205Z,12.56
2022-12-31T09:54:20.501Z,12.71
2022-12-31T09:58:05.809Z,13.01
2022-12-31T10:01:11.830Z,13.40
2022-12-31T10:04:33.597Z,13.44
2022-12-31T10:08:25.903Z,13.52
2022-12-31T10:12:03.271Z,13.62
2022-12-31T10:15:29.043Z,13.62
2022-12-31T10:19:07.729Z,13.59
2022-12-31T10:22:41.809Z,13.80
2022-12-31T10:26:05.219Z,14.17
2022-12-31T10:29:26.404Z,14.28
2022-12-31T10:32:51.305Z,14.32
2022-12-31T10:36:05.273Z,14.24
2022-12-31T10:39:22.184Z,14.32
2022-12-31T10:42:50.222Z,14.44
2022-12-31T10:46:30.135Z,14.53
2022-12-31T10:49:51.034Z,14.55
2022-12-31T10:53:13.069Z,14.47
2022-12-31T10:56:27.965Z,14.30
2022-12-31T11:00:22.670Z,14.21
2022-12-31T11:03:57.903Z,13.98
2022-12-31T11:07:16.018Z,13.84
2022-12-31T11:10:44.250Z,13.80
2022-12-31T11:13:47.002Z,13.85
2022-12-31T11:17:04.522Z,13.92
2022-12-31T11:20:39.548Z,13.92
2022-12-31T11:24:06.094Z,13.96
2022-12-31T11:27:14.898Z,14.00
2022-12-31T11:30:31.255Z,14.14
2022-12-31T11:33:58.487Z,14.36
2022-12-31T11:37:26.401Z,14.55
2022-12-31T11:40:54.717Z,14.65
2022-12-31T11:44:35.215Z,14.52
2022-12-31T11:48:04.227Z,14.55
2022-12-31T11:51:09.867Z,14.39
2022-12-31T11:54:21.720Z,14.13
2022-12-31T11:57:37.398Z,13.85
2022-12-31T12:00:47.526Z,13.77
2022-12-31T12:03:50.472Z,13.96
2022-12-31T12:06:53.538Z,14.09
2022-12-31T12:09:58.394Z,14.17
2022-12-31T12:13:01.202Z,14.24
2022-12-31T12:16:07.593Z,14.42
2022-12-31T12:19:18.021Z,14.72
2022-12-31T12:22:25.893Z,15.21
2022-12-31T12:25:40.874Z,15.42
2022-12-31T12:28:46.302Z,15.53
2022-12-31T12:32:17.065Z,14.94
2022-12-31T12:35:27.181Z,14.18
2022-12-31T12:38:29.970Z,14.32
2022-12-31T12:41:32.899Z,14.54
2022-12-31T12:44:36.095Z,14.76
2022-12-31T12:47:43.284Z,14.79
2022-12-31T12:50:48.740Z,14.75
2022-12-31T12:53:58.707Z,14.80
2022-12-31T12:57:07.639Z,15.13
2022-12-31T13:00:16.668Z,15.28
2022-12-31T13:07:46.926Z,15.38
2022-12-31T13:11:19.086Z,15.35
2022-12-31T13:14:42.628Z,15.41
2022-12-31T13:18:01.848Z,15.50
2022-12-31T13:21:23.857Z,15.47
2022-12-31T13:24:45.639Z,15.64
2022-12-31T13:27:52.127Z,15.65
2022-12-31T13:31:07.274Z,15.54
2022-12-31T13:34:23.328Z,15.33
2022-12-31T13:37:33.981Z,15.30
2022-12-31T13:41:00.140Z,15.50
2022-12-31T13:44:08.640Z,15.50
2022-12-31T13:47:20.460Z,15.55
2022-12-31T13:50:41.857Z,15.65
2022-12-31T13:53:57.781Z,15.49
2022-12-31T13:57:05.893Z,15.36
2022-12-31T14:00:17.918Z,15.30
2022-12-31T14:03:40.431Z,15.40
2022-12-31T14:06:51.480Z,15.38
2022-12-31T14:09:54.717Z,15.25
2022-12-31T14:13:34.172Z,15.18
2022-12-31T14:16:55.214Z,15.06
2022-12-31T14:20:14.360Z,14.82
2022-12-31T14:23:34.606Z,14.93
2022-12-31T14:26:42.586Z,14.90
2022-12-31T14:29:52.111Z,14.95
2022-12-31T14:33:12.122Z,15.14
2022-12-31T14:36:24.032Z,15.07
2022-12-31T14:39:37.811Z,15.56
2022-12-31T14:42:49.653Z,15.46
2022-12-31T14:46:18.880Z,14.60
2022-12-31T14:49:46.680Z,14.47
2022-12-31T14:53:07.995Z,15.10
2022-12-31T14:56:41.551Z,15.58
2022-12-31T14:59:58.453Z,15.37
2022-12-31T15:03:25.117Z,15.11
2022-12-31T15:06:47.377Z,14.82
2022-12-31T15:10:14.978Z,14.94
2022-12-31T15:13:49.290Z,15.40
2022-12-31T15:17:09.766Z,15.25
2022-12-31T15:20:37.907Z,15.04
2022-12-31T15:23:46.281Z,14.84
2022-12-31T15:27:01.953Z,14.61
2022-12-31T15:30:07.195Z,14.48
2022-12-31T15:33:17.610Z,14.61
2022-12-31T15:36:24.243Z,14.48
2022-12-31T15:39:39.583Z,14.35
2022-12-31T15:42:50.327Z,14.25
2022-12-31T15:45:55.566Z,14.15
2022-12-31T15:49:11.758Z,14.02
2022-12-31T15:52:29.469Z,13.91
2022-12-31T15:55:48.628Z,13.85
2022-12-31T15:58:56.923Z,13.74
2022-12-31T16:01:59.938Z,13.88
2022-12-31T16:05:02.900Z,14.26
2022-12-31T16:08:06.283Z,14.47
2022-12-31T16:11:10.261Z,14.51
2022-12-31T16:14:22.282Z,14.58
2022-12-31T16:17:33.559Z,14.62
2022-12-31T16:20:43.215Z,14.57
2022-12-31T16:23:51.249Z,14.36
2022-12-31T16:26:57.259Z,14.04
2022-12-31T16:30:07.601Z,13.77
2022-12-31T16:33:14.526Z,13.80
2022-12-31T16:36:23.013Z,13.62
2022-12-31T16:39:31.055Z,13.49
2022-12-31T16:42:42.435Z,13.34
2022-12-31T16:45:47.248Z,13.18
2022-12-31T16:48:55.241Z,13.11
2022-12-31T16:52:04.843Z,13.00
2022-12-31T16:55:10.474Z,12.90
2022-12-31T16:58:34.709Z,13.08
2022-12-31T17:01:38.548Z,13.41
2022-12-31T17:04:48.037Z,13.46
2022-12-31T17:07:54.954Z,13.39
2022-12-31T17:10:57.829Z,13.41
2022-12-31T17:14:13.953Z,13.26
2022-12-31T17:17:26.367Z,13.07
2022-12-31T17:20:31.749Z,12.99
2022-12-31T17:23:37.008Z,12.93
2022-12-31T17:26:39.942Z,13.05
2022-12-31T17:29:44.283Z,13.13
2022-12-31T17:32:50.110Z,13.09
2022-12-31T17:36:23.757Z,13.06
2022-12-31T17:39:38.813Z,13.05
2022-12-31T17:42:41.744Z,12.99
2022-12-31T17:45:46.477Z,12.98
2022-12-31T17:49:00.982Z,12.87
2022-12-31T17:52:03.959Z,12.76
2022-12-31T17:55:06.964Z,12.63
2022-12-31T17:58:29.664Z,12.53
2022-12-31T18:01:33.238Z,12.45
2022-12-31T18:04:36.061Z,12.30
2022-12-31T18:07:38.852Z,12.31
2022-12-31T18:10:44.410Z,12.13
2022-12-31T18:13:47.357Z,12.01
2022-12-31T18:16:50.314Z,11.97
2022-12-31T18:20:08.641Z,11.88
2022-12-31T18:23:20.771Z,11.86
2022-12-31T18:26:24.498Z,11.87
2022-12-31T18:29:27.312Z,11.89
2022-12-31T18:32:34.186Z,11.85
2022-12-31T18:38:59.962Z,11.69
2022-12-31T18:42:02.801Z,11.59
2022-12-31T18:45:15.317Z,11.62
2022-12-31T18:48:19.075Z,11.74
2022-12-31T18:51:31.382Z,11.80
2022-12-31T18:54:35.079Z,11.85
2022-12-31T18:57:37.866Z,11.89
2022-12-31T19:00:41.195Z,11.88
2022-12-31T19:03:44.038Z,11.79
2022-12-31T19:06:47.864Z,11.68
2022-12-31T19:09:56.368Z,11.65
2022-12-31T19:13:01.185Z,11.89
2022-12-31T19:16:04.135Z,12.06
2022-12-31T19:19:08.719Z,12.10
2022-12-31T19:22:15.307Z,12.01
2022-12-31T19:25:19.658Z,11.98
2022-12-31T19:28:25.242Z,12.15
2022-12-31T19:31:28.120Z,12.39
2022-12-31T19:34:30.964Z,12.42
2022-12-31T19:37:33.795Z,12.59
2022-12-31T19:40:36.624Z,12.53
2022-12-31T19:43:39.494Z,12.49
2022-12-31T19:46:42.369Z,12.41
2022-12-31T19:49:45.326Z,12.35
2022-12-31T19:52:50.058Z,12.33
2022-12-31T19:55:53.596Z,12.31
2022-12-31T19:58:56.383Z,12.29
2022-12-31T20:01:59.327Z,12.24
2022-12-31T20:05:02.415Z,12.09
2022-12-31T20:08:05.390Z,11.88
2022-12-31T20:11:17.483Z,11.70
2022-12-31T20:14:20.341Z,11.65
2022-12-31T20:17:23.266Z,11.65
2022-12-31T20:20:29.480Z,11.55
2022-12-31T20:23:35.395Z,11.45
2022-12-31T20:26:38.392Z,11.31
2022-12-31T20:29:41.211Z,11.34
2022-12-31T20:32:44.155Z,11.35
2022-12-31T20:35:47.230Z,11.31
2022-12-31T20:38:50.439Z,11.29
2022-12-31T20:45:40.516Z,11.23
2022-12-31T20:48:45.039Z,11.19
2022-12-31T20:51:52.091Z,11.15
2022-12-31T20:54:55.281Z,11.15
2022-12-31T20:57:58.319Z,11.24
2022-12-31T21:01:01.694Z,11.32
2022-12-31T21:04:06.673Z,11.28
2022-12-31T21:07:09.783Z,11.25
2022-12-31T21:10:12.721Z,11.18
2022-12-31T21:13:15.757Z,11.17
2022-12-31T21:16:18.855Z,11.16
2022-12-31T21:19:21.694Z,11.09
2022-12-31T21:22:24.813Z,11.00
2022-12-31T21:25:27.671Z,10.92
2022-12-31T21:28:30.507Z,10.86
2022-12-31T21:31:33.480Z,10.86
2022-12-31T21:34:36.447Z,10.86
2022-12-31T21:37:59.126Z,10.86
2022-12-31T21:41:03.796Z,10.92
2022-12-31T21:44:06.762Z,10.87
2022-12-31T21:47:38.652Z,10.97
2022-12-31T21:50:46.042Z,11.00
2022-12-31T21:53:49.105Z,10.95
2022-12-31T21:56:51.907Z,10.91
2022-12-31T22:00:41.266Z,10.91
2022-12-31T22:03:36.620Z,10.89
2022-12-31T22:06:39.453Z,10.86
2022-12-31T22:09:42.271Z,10.81
2022-12-31T22:12:45.539Z,10.76
2022-12-31T22:15:52.142Z,10.77
2022-12-31T22:18:56.088Z,10.95
2022-12-31T22:21:58.934Z,10.94
2022-12-31T22:25:01.859Z,10.86
2022-12-31T22:28:37.508Z,10.84
2022-12-31T22:31:30.537Z,10.84
2022-12-31T22:34:33.499Z,10.85
2022-12-31T22:37:56.334Z,10.84
2022-12-31T22:41:08.094Z,10.82
2022-12-31T22:44:11.088Z,10.82
2022-12-31T22:47:13.886Z,10.83
2022-12-31T22:50:16.743Z,10.79
2022-12-31T22:53:19.935Z,10.76
2022-12-31T22:56:22.718Z,10.75
2022-12-31T22:59:25.620Z,10.85
2022-12-31T23:02:28.734Z,11.03
2022-12-31T23:05:34.124Z,11.28
2022-12-31T23:08:37.010Z,11.52
2022-12-31T23:11:41.111Z,11.76
2022-12-31T23:15:02.326Z,11.96
2022-12-31T23:18:23.967Z,12.11
2022-12-31T23:21:45.626Z,12.22
2022-12-31T23:24:48.470Z,12.29
2022-12-31T23:27:51.301Z,12.35
2022-12-31T23:30:54.329Z,12.42
2022-12-31T23:33:57.273Z,12.47
2022-12-31T23:37:00.167Z,12.50
2022-12-31T23:40:06.568Z,12.53
2022-12-31T23:43:21.878Z,12.54
2022-12-31T23:46:24.753Z,12.56
2022-12-31T23:49:27.702Z,12.58
2022-12-31T23:52:30.628Z,12.61
2022-12-31T23:55:33.519Z,12.63
2022-12-31T23:58:36.354Z,12.65
